sensor_id;sensor_type;location;lat;lon;timestamp;P1;durP1;ratioP1;P2;durP2;ratioP2
13708;SDS011;54933;51.908;7.730;2023-07-08T00:01:42;1.50;;;1.40;;
13708;SDS011;54933;51.908;7.730;2023-07-08T00:04:07;1.30;;;1.00;;
13708;SDS011;54933;51.908;7.730;2023-07-08T00:06:33;0.70;;;0.70;;
13708;SDS011;54933;51.908;7.730;2023-07-08T00:09:00;1.20;;;0.90;;
13708;SDS011;54933;51.908;7.730;2023-07-08T00:11:25;1.00;;;0.90;;
13708;SDS011;54933;51.908;7.730;2023-07-08T00:13:53;1.17;;;1.00;;
13708;SDS011;54933;51.908;7.730;2023-07-08T00:16:18;1.00;;;0.60;;
13708;SDS011;54933;51.908;7.730;2023-07-08T00:18:44;0.83;;;0.83;;
13708;SDS011;54933;51.908;7.730;2023-07-08T00:21:10;0.70;;;0.70;;
13708;SDS011;54933;51.908;7.730;2023-07-08T00:23:39;1.77;;;0.90;;
13708;SDS011;54933;51.908;7.730;2023-07-08T00:26:19;0.80;;;0.80;;
13708;SDS011;54933;51.908;7.730;2023-07-08T00:28:48;0.70;;;0.70;;
13708;SDS011;54933;51.908;7.730;2023-07-08T00:31:14;2.23;;;1.00;;
13708;SDS011;54933;51.908;7.730;2023-07-08T00:33:39;0.90;;;0.90;;
13708;SDS011;54933;51.908;7.730;2023-07-08T00:36:08;1.87;;;0.90;;
13708;SDS011;54933;51.908;7.730;2023-07-08T00:38:36;0.70;;;0.70;;
13708;SDS011;54933;51.908;7.730;2023-07-08T00:43:33;2.03;;;1.07;;
13708;SDS011;54933;51.908;7.730;2023-07-08T00:48:43;0.70;;;0.70;;
13708;SDS011;54933;51.908;7.730;2023-07-08T00:51:10;0.70;;;0.70;;
13708;SDS011;54933;51.908;7.730;2023-07-08T00:53:37;1.23;;;0.80;;
13708;SDS011;54933;51.908;7.730;2023-07-08T00:56:12;0.60;;;0.60;;
13708;SDS011;54933;51.908;7.730;2023-07-08T00:58:48;0.60;;;0.60;;
13708;SDS011;54933;51.908;7.730;2023-07-08T01:01:20;0.70;;;0.70;;
13708;SDS011;54933;51.908;7.730;2023-07-08T01:06:19;1.60;;;1.10;;
13708;SDS011;54933;51.908;7.730;2023-07-08T01:08:47;0.80;;;0.80;;
13708;SDS011;54933;51.908;7.730;2023-07-08T01:11:17;0.77;;;0.60;;
13708;SDS011;54933;51.908;7.730;2023-07-08T01:13:46;1.00;;;0.90;;
13708;SDS011;54933;51.908;7.730;2023-07-08T01:16:13;1.17;;;0.80;;
13708;SDS011;54933;51.908;7.730;2023-07-08T01:18:40;1.00;;;0.90;;
13708;SDS011;54933;51.908;7.730;2023-07-08T01:21:25;1.37;;;0.80;;
13708;SDS011;54933;51.908;7.730;2023-07-08T01:23:53;1.80;;;0.70;;
13708;SDS011;54933;51.908;7.730;2023-07-08T01:26:20;1.80;;;0.67;;
13708;SDS011;54933;51.908;7.730;2023-07-08T01:28:48;1.27;;;1.00;;
13708;SDS011;54933;51.908;7.730;2023-07-08T01:31:13;0.80;;;0.80;;
13708;SDS011;54933;51.908;7.730;2023-07-08T01:33:38;0.50;;;0.50;;
13708;SDS011;54933;51.908;7.730;2023-07-08T01:36:04;0.80;;;0.80;;
13708;SDS011;54933;51.908;7.730;2023-07-08T01:38:30;1.47;;;0.77;;
13708;SDS011;54933;51.908;7.730;2023-07-08T01:40:57;0.80;;;0.70;;
13708;SDS011;54933;51.908;7.730;2023-07-08T01:43:22;1.00;;;0.90;;
13708;SDS011;54933;51.908;7.730;2023-07-08T01:45:48;0.70;;;0.70;;
13708;SDS011;54933;51.908;7.730;2023-07-08T01:48:19;0.70;;;0.70;;
13708;SDS011;54933;51.908;7.730;2023-07-08T01:50:48;0.80;;;0.80;;
13708;SDS011;54933;51.908;7.730;2023-07-08T01:53:21;0.70;;;0.70;;
13708;SDS011;54933;51.908;7.730;2023-07-08T01:55:52;0.70;;;0.70;;
13708;SDS011;54933;51.908;7.730;2023-07-08T01:58:17;0.90;;;0.90;;
13708;SDS011;54933;51.908;7.730;2023-07-08T02:00:42;0.60;;;0.60;;
13708;SDS011;54933;51.908;7.730;2023-07-08T02:03:08;1.10;;;0.80;;
13708;SDS011;54933;51.908;7.730;2023-07-08T02:05:34;0.80;;;0.80;;
13708;SDS011;54933;51.908;7.730;2023-07-08T02:08:00;1.27;;;0.80;;
13708;SDS011;54933;51.908;7.730;2023-07-08T02:10:25;0.73;;;0.73;;
13708;SDS011;54933;51.908;7.730;2023-07-08T02:12:50;0.80;;;0.80;;
13708;SDS011;54933;51.908;7.730;2023-07-08T02:15:16;1.23;;;0.70;;
13708;SDS011;54933;51.908;7.730;2023-07-08T02:17:41;3.10;;;0.90;;
13708;SDS011;54933;51.908;7.730;2023-07-08T02:20:06;0.80;;;0.80;;
13708;SDS011;54933;51.908;7.730;2023-07-08T02:22:33;0.77;;;0.70;;
13708;SDS011;54933;51.908;7.730;2023-07-08T02:24:58;0.87;;;0.87;;
13708;SDS011;54933;51.908;7.730;2023-07-08T02:27:24;0.80;;;0.80;;
13708;SDS011;54933;51.908;7.730;2023-07-08T02:29:49;0.70;;;0.70;;
13708;SDS011;54933;51.908;7.730;2023-07-08T02:32:14;0.97;;;0.80;;
13708;SDS011;54933;51.908;7.730;2023-07-08T02:34:39;0.87;;;0.87;;
13708;SDS011;54933;51.908;7.730;2023-07-08T02:37:05;0.77;;;0.77;;
13708;SDS011;54933;51.908;7.730;2023-07-08T02:39:30;2.13;;;0.90;;
13708;SDS011;54933;51.908;7.730;2023-07-08T02:41:55;1.13;;;1.13;;
13708;SDS011;54933;51.908;7.730;2023-07-08T02:44:20;0.80;;;0.80;;
13708;SDS011;54933;51.908;7.730;2023-07-08T02:46:46;1.17;;;0.83;;
13708;SDS011;54933;51.908;7.730;2023-07-08T02:49:11;0.70;;;0.70;;
13708;SDS011;54933;51.908;7.730;2023-07-08T02:51:36;0.77;;;0.77;;
13708;SDS011;54933;51.908;7.730;2023-07-08T02:54:01;0.60;;;0.60;;
13708;SDS011;54933;51.908;7.730;2023-07-08T02:56:27;0.70;;;0.70;;
13708;SDS011;54933;51.908;7.730;2023-07-08T02:58:52;1.17;;;0.80;;
13708;SDS011;54933;51.908;7.730;2023-07-08T03:01:18;0.53;;;0.53;;
13708;SDS011;54933;51.908;7.730;2023-07-08T03:03:44;0.70;;;0.70;;
13708;SDS011;54933;51.908;7.730;2023-07-08T03:06:10;0.73;;;0.60;;
13708;SDS011;54933;51.908;7.730;2023-07-08T03:08:36;0.73;;;0.70;;
13708;SDS011;54933;51.908;7.730;2023-07-08T03:11:02;0.67;;;0.67;;
13708;SDS011;54933;51.908;7.730;2023-07-08T03:13:28;1.37;;;1.30;;
13708;SDS011;54933;51.908;7.730;2023-07-08T03:15:54;0.60;;;0.60;;
13708;SDS011;54933;51.908;7.730;2023-07-08T03:18:20;0.90;;;0.90;;
13708;SDS011;54933;51.908;7.730;2023-07-08T03:20:48;0.80;;;0.80;;
13708;SDS011;54933;51.908;7.730;2023-07-08T03:23:14;0.60;;;0.60;;
13708;SDS011;54933;51.908;7.730;2023-07-08T03:25:39;0.80;;;0.80;;
13708;SDS011;54933;51.908;7.730;2023-07-08T03:28:04;0.70;;;0.70;;
13708;SDS011;54933;51.908;7.730;2023-07-08T03:30:31;0.70;;;0.67;;
13708;SDS011;54933;51.908;7.730;2023-07-08T03:32:57;0.70;;;0.70;;
13708;SDS011;54933;51.908;7.730;2023-07-08T03:35:22;0.90;;;0.90;;
13708;SDS011;54933;51.908;7.730;2023-07-08T03:37:47;0.70;;;0.70;;
13708;SDS011;54933;51.908;7.730;2023-07-08T03:40:13;0.70;;;0.60;;
13708;SDS011;54933;51.908;7.730;2023-07-08T03:42:38;0.80;;;0.80;;
13708;SDS011;54933;51.908;7.730;2023-07-08T03:45:04;0.60;;;0.60;;
13708;SDS011;54933;51.908;7.730;2023-07-08T03:47:29;0.70;;;0.70;;
13708;SDS011;54933;51.908;7.730;2023-07-08T03:49:54;0.80;;;0.80;;
13708;SDS011;54933;51.908;7.730;2023-07-08T03:52:20;0.70;;;0.70;;
13708;SDS011;54933;51.908;7.730;2023-07-08T03:54:45;0.57;;;0.57;;
13708;SDS011;54933;51.908;7.730;2023-07-08T03:57:11;0.60;;;0.60;;
13708;SDS011;54933;51.908;7.730;2023-07-08T03:59:37;0.87;;;0.87;;
13708;SDS011;54933;51.908;7.730;2023-07-08T04:02:02;0.70;;;0.70;;
13708;SDS011;54933;51.908;7.730;2023-07-08T04:04:27;0.60;;;0.60;;
13708;SDS011;54933;51.908;7.730;2023-07-08T04:06:53;2.00;;;0.90;;
13708;SDS011;54933;51.908;7.730;2023-07-08T04:09:19;1.07;;;0.90;;
13708;SDS011;54933;51.908;7.730;2023-07-08T04:11:45;0.50;;;0.50;;
13708;SDS011;54933;51.908;7.730;2023-07-08T04:14:10;0.87;;;0.87;;
13708;SDS011;54933;51.908;7.730;2023-07-08T04:16:43;0.70;;;0.70;;
13708;SDS011;54933;51.908;7.730;2023-07-08T04:19:15;0.77;;;0.77;;
13708;SDS011;54933;51.908;7.730;2023-07-08T04:21:41;0.70;;;0.70;;
13708;SDS011;54933;51.908;7.730;2023-07-08T04:24:11;0.80;;;0.80;;
13708;SDS011;54933;51.908;7.730;2023-07-08T04:26:37;0.53;;;0.53;;
13708;SDS011;54933;51.908;7.730;2023-07-08T04:29:04;0.60;;;0.60;;
13708;SDS011;54933;51.908;7.730;2023-07-08T04:31:35;0.80;;;0.80;;
13708;SDS011;54933;51.908;7.730;2023-07-08T04:34:00;0.77;;;0.77;;
13708;SDS011;54933;51.908;7.730;2023-07-08T04:36:25;0.50;;;0.50;;
13708;SDS011;54933;51.908;7.730;2023-07-08T04:38:51;0.70;;;0.70;;
13708;SDS011;54933;51.908;7.730;2023-07-08T04:41:17;0.73;;;0.70;;
13708;SDS011;54933;51.908;7.730;2023-07-08T04:43:43;0.80;;;0.70;;
13708;SDS011;54933;51.908;7.730;2023-07-08T04:46:14;0.57;;;0.57;;
13708;SDS011;54933;51.908;7.730;2023-07-08T04:48:46;0.63;;;0.63;;
13708;SDS011;54933;51.908;7.730;2023-07-08T04:51:13;2.10;;;0.70;;
13708;SDS011;54933;51.908;7.730;2023-07-08T04:53:38;0.73;;;0.73;;
13708;SDS011;54933;51.908;7.730;2023-07-08T04:56:04;0.63;;;0.63;;
13708;SDS011;54933;51.908;7.730;2023-07-08T04:58:29;0.40;;;0.40;;
13708;SDS011;54933;51.908;7.730;2023-07-08T05:00:54;0.70;;;0.70;;
13708;SDS011;54933;51.908;7.730;2023-07-08T05:03:19;0.50;;;0.50;;
13708;SDS011;54933;51.908;7.730;2023-07-08T05:05:45;0.60;;;0.60;;
13708;SDS011;54933;51.908;7.730;2023-07-08T05:08:11;0.60;;;0.60;;
13708;SDS011;54933;51.908;7.730;2023-07-08T05:10:36;0.63;;;0.63;;
13708;SDS011;54933;51.908;7.730;2023-07-08T05:13:02;0.87;;;0.60;;
13708;SDS011;54933;51.908;7.730;2023-07-08T05:15:27;0.53;;;0.53;;
13708;SDS011;54933;51.908;7.730;2023-07-08T05:17:53;0.73;;;0.73;;
13708;SDS011;54933;51.908;7.730;2023-07-08T05:20:18;0.70;;;0.70;;
13708;SDS011;54933;51.908;7.730;2023-07-08T05:22:44;0.60;;;0.60;;
13708;SDS011;54933;51.908;7.730;2023-07-08T05:25:10;0.50;;;0.50;;
13708;SDS011;54933;51.908;7.730;2023-07-08T05:27:36;0.70;;;0.70;;
13708;SDS011;54933;51.908;7.730;2023-07-08T05:30:02;0.70;;;0.70;;
13708;SDS011;54933;51.908;7.730;2023-07-08T05:32:30;2.00;;;0.80;;
13708;SDS011;54933;51.908;7.730;2023-07-08T05:34:56;0.70;;;0.70;;
13708;SDS011;54933;51.908;7.730;2023-07-08T05:37:21;0.73;;;0.73;;
13708;SDS011;54933;51.908;7.730;2023-07-08T05:39:50;0.77;;;0.63;;
13708;SDS011;54933;51.908;7.730;2023-07-08T05:42:16;0.67;;;0.67;;
13708;SDS011;54933;51.908;7.730;2023-07-08T05:44:41;0.87;;;0.80;;
13708;SDS011;54933;51.908;7.730;2023-07-08T05:47:06;0.60;;;0.60;;
13708;SDS011;54933;51.908;7.730;2023-07-08T05:49:31;0.60;;;0.60;;
13708;SDS011;54933;51.908;7.730;2023-07-08T05:51:57;0.60;;;0.60;;
13708;SDS011;54933;51.908;7.730;2023-07-08T05:54:22;0.80;;;0.80;;
13708;SDS011;54933;51.908;7.730;2023-07-08T05:56:47;0.67;;;0.67;;
13708;SDS011;54933;51.908;7.730;2023-07-08T05:59:13;0.70;;;0.70;;
13708;SDS011;54933;51.908;7.730;2023-07-08T06:01:38;0.60;;;0.60;;
13708;SDS011;54933;51.908;7.730;2023-07-08T06:04:03;0.57;;;0.57;;
13708;SDS011;54933;51.908;7.730;2023-07-08T06:06:29;0.87;;;0.87;;
13708;SDS011;54933;51.908;7.730;2023-07-08T06:08:54;0.60;;;0.60;;
13708;SDS011;54933;51.908;7.730;2023-07-08T06:11:19;0.63;;;0.63;;
13708;SDS011;54933;51.908;7.730;2023-07-08T06:13:46;0.70;;;0.70;;
13708;SDS011;54933;51.908;7.730;2023-07-08T06:16:12;0.70;;;0.70;;
13708;SDS011;54933;51.908;7.730;2023-07-08T06:18:37;0.97;;;0.93;;
13708;SDS011;54933;51.908;7.730;2023-07-08T06:21:02;0.90;;;0.90;;
13708;SDS011;54933;51.908;7.730;2023-07-08T06:23:28;0.90;;;0.90;;
13708;SDS011;54933;51.908;7.730;2023-07-08T06:25:54;0.60;;;0.60;;
13708;SDS011;54933;51.908;7.730;2023-07-08T06:28:20;1.23;;;0.80;;
13708;SDS011;54933;51.908;7.730;2023-07-08T06:30:46;0.70;;;0.70;;
13708;SDS011;54933;51.908;7.730;2023-07-08T06:33:12;0.70;;;0.70;;
13708;SDS011;54933;51.908;7.730;2023-07-08T06:35:38;0.97;;;0.80;;
13708;SDS011;54933;51.908;7.730;2023-07-08T06:38:04;0.57;;;0.57;;
13708;SDS011;54933;51.908;7.730;2023-07-08T06:40:30;0.70;;;0.70;;
13708;SDS011;54933;51.908;7.730;2023-07-08T06:42:56;70.63;;;4.90;;
13708;SDS011;54933;51.908;7.730;2023-07-08T06:45:21;4.70;;;1.40;;
13708;SDS011;54933;51.908;7.730;2023-07-08T06:47:46;9.03;;;1.40;;
13708;SDS011;54933;51.908;7.730;2023-07-08T06:50:13;18.50;;;1.83;;
13708;SDS011;54933;51.908;7.730;2023-07-08T06:52:38;7.03;;;1.10;;
13708;SDS011;54933;51.908;7.730;2023-07-08T06:55:06;1.87;;;0.80;;
13708;SDS011;54933;51.908;7.730;2023-07-08T06:57:33;5.37;;;0.97;;
13708;SDS011;54933;51.908;7.730;2023-07-08T06:59:59;5.27;;;0.97;;
13708;SDS011;54933;51.908;7.730;2023-07-08T07:02:25;4.53;;;1.30;;
13708;SDS011;54933;51.908;7.730;2023-07-08T07:04:51;5.17;;;1.20;;
13708;SDS011;54933;51.908;7.730;2023-07-08T07:07:16;3.80;;;1.30;;
13708;SDS011;54933;51.908;7.730;2023-07-08T07:09:41;2.13;;;0.90;;
13708;SDS011;54933;51.908;7.730;2023-07-08T07:12:07;3.17;;;0.97;;
13708;SDS011;54933;51.908;7.730;2023-07-08T07:14:32;0.90;;;0.87;;
13708;SDS011;54933;51.908;7.730;2023-07-08T07:16:58;0.70;;;0.70;;
13708;SDS011;54933;51.908;7.730;2023-07-08T07:19:24;1.53;;;0.83;;
13708;SDS011;54933;51.908;7.730;2023-07-08T07:21:49;1.90;;;0.60;;
13708;SDS011;54933;51.908;7.730;2023-07-08T07:24:14;6.40;;;1.23;;
13708;SDS011;54933;51.908;7.730;2023-07-08T07:26:40;2.77;;;0.80;;
13708;SDS011;54933;51.908;7.730;2023-07-08T07:29:05;1.93;;;0.80;;
13708;SDS011;54933;51.908;7.730;2023-07-08T07:31:31;4.90;;;0.80;;
13708;SDS011;54933;51.908;7.730;2023-07-08T07:33:57;3.13;;;0.80;;
13708;SDS011;54933;51.908;7.730;2023-07-08T07:36:23;2.50;;;0.97;;
13708;SDS011;54933;51.908;7.730;2023-07-08T07:38:49;2.13;;;0.97;;
13708;SDS011;54933;51.908;7.730;2023-07-08T07:41:14;3.90;;;0.90;;
13708;SDS011;54933;51.908;7.730;2023-07-08T07:43:39;0.60;;;0.60;;
13708;SDS011;54933;51.908;7.730;2023-07-08T07:46:05;1.90;;;0.70;;
13708;SDS011;54933;51.908;7.730;2023-07-08T07:48:31;31.53;;;4.33;;
13708;SDS011;54933;51.908;7.730;2023-07-08T07:50:57;38.17;;;4.67;;
13708;SDS011;54933;51.908;7.730;2023-07-08T07:53:22;47.77;;;4.27;;
13708;SDS011;54933;51.908;7.730;2023-07-08T07:55:47;22.67;;;3.37;;
13708;SDS011;54933;51.908;7.730;2023-07-08T07:58:13;29.87;;;3.43;;
13708;SDS011;54933;51.908;7.730;2023-07-08T08:00:38;24.97;;;4.73;;
13708;SDS011;54933;51.908;7.730;2023-07-08T08:03:04;20.43;;;2.83;;
13708;SDS011;54933;51.908;7.730;2023-07-08T08:05:29;14.10;;;2.70;;
13708;SDS011;54933;51.908;7.730;2023-07-08T08:07:55;16.73;;;2.53;;
13708;SDS011;54933;51.908;7.730;2023-07-08T08:10:20;18.90;;;2.00;;
13708;SDS011;54933;51.908;7.730;2023-07-08T08:12:46;25.63;;;2.43;;
13708;SDS011;54933;51.908;7.730;2023-07-08T08:15:15;16.10;;;2.47;;
13708;SDS011;54933;51.908;7.730;2023-07-08T08:17:41;14.33;;;2.90;;
13708;SDS011;54933;51.908;7.730;2023-07-08T08:20:06;12.27;;;2.37;;
13708;SDS011;54933;51.908;7.730;2023-07-08T08:22:32;9.13;;;2.00;;
13708;SDS011;54933;51.908;7.730;2023-07-08T08:24:57;10.77;;;2.00;;
13708;SDS011;54933;51.908;7.730;2023-07-08T08:27:22;9.23;;;1.60;;
13708;SDS011;54933;51.908;7.730;2023-07-08T08:29:48;13.93;;;3.00;;
13708;SDS011;54933;51.908;7.730;2023-07-08T08:32:13;7.30;;;1.40;;
13708;SDS011;54933;51.908;7.730;2023-07-08T08:34:39;7.73;;;1.97;;
13708;SDS011;54933;51.908;7.730;2023-07-08T08:37:04;10.80;;;1.83;;
13708;SDS011;54933;51.908;7.730;2023-07-08T08:39:29;14.53;;;2.17;;
13708;SDS011;54933;51.908;7.730;2023-07-08T08:41:55;4.43;;;1.60;;
13708;SDS011;54933;51.908;7.730;2023-07-08T08:44:31;11.77;;;1.80;;
13708;SDS011;54933;51.908;7.730;2023-07-08T08:47:02;10.93;;;2.43;;
13708;SDS011;54933;51.908;7.730;2023-07-08T08:49:41;18.73;;;3.13;;
13708;SDS011;54933;51.908;7.730;2023-07-08T08:52:12;22.77;;;2.43;;
13708;SDS011;54933;51.908;7.730;2023-07-08T08:54:39;12.73;;;1.97;;
13708;SDS011;54933;51.908;7.730;2023-07-08T08:57:12;18.17;;;2.70;;
13708;SDS011;54933;51.908;7.730;2023-07-08T08:59:53;7.50;;;1.60;;
13708;SDS011;54933;51.908;7.730;2023-07-08T09:05:06;12.37;;;1.60;;
13708;SDS011;54933;51.908;7.730;2023-07-08T09:10:44;73.60;;;6.93;;
13708;SDS011;54933;51.908;7.730;2023-07-08T09:13:24;51.37;;;6.63;;
13708;SDS011;54933;51.908;7.730;2023-07-08T09:15:59;27.00;;;4.90;;
13708;SDS011;54933;51.908;7.730;2023-07-08T09:18:36;26.47;;;4.03;;
13708;SDS011;54933;51.908;7.730;2023-07-08T09:21:19;26.20;;;3.80;;
13708;SDS011;54933;51.908;7.730;2023-07-08T09:23:49;18.80;;;3.60;;
13708;SDS011;54933;51.908;7.730;2023-07-08T09:26:19;21.57;;;3.47;;
13708;SDS011;54933;51.908;7.730;2023-07-08T09:28:47;26.90;;;3.43;;
13708;SDS011;54933;51.908;7.730;2023-07-08T09:31:21;39.27;;;6.17;;
13708;SDS011;54933;51.908;7.730;2023-07-08T09:34:04;38.20;;;4.73;;
13708;SDS011;54933;51.908;7.730;2023-07-08T09:36:38;38.07;;;5.60;;
13708;SDS011;54933;51.908;7.730;2023-07-08T09:39:11;30.20;;;3.43;;
13708;SDS011;54933;51.908;7.730;2023-07-08T09:41:38;22.63;;;4.77;;
13708;SDS011;54933;51.908;7.730;2023-07-08T09:46:41;22.13;;;3.23;;
13708;SDS011;54933;51.908;7.730;2023-07-08T09:49:21;15.13;;;2.40;;
13708;SDS011;54933;51.908;7.730;2023-07-08T09:51:53;17.80;;;3.53;;
13708;SDS011;54933;51.908;7.730;2023-07-08T09:54:22;19.73;;;3.60;;
13708;SDS011;54933;51.908;7.730;2023-07-08T09:56:59;28.70;;;3.10;;
13708;SDS011;54933;51.908;7.730;2023-07-08T09:59:32;17.87;;;3.43;;
13708;SDS011;54933;51.908;7.730;2023-07-08T10:02:04;15.33;;;3.07;;
13708;SDS011;54933;51.908;7.730;2023-07-08T10:04:52;14.77;;;3.60;;
13708;SDS011;54933;51.908;7.730;2023-07-08T10:07:18;15.37;;;3.13;;
13708;SDS011;54933;51.908;7.730;2023-07-08T10:09:43;19.70;;;3.03;;
13708;SDS011;54933;51.908;7.730;2023-07-08T10:12:14;19.03;;;2.77;;
13708;SDS011;54933;51.908;7.730;2023-07-08T10:14:45;10.03;;;2.63;;
13708;SDS011;54933;51.908;7.730;2023-07-08T10:17:15;15.33;;;2.73;;
13708;SDS011;54933;51.908;7.730;2023-07-08T10:19:43;8.03;;;2.50;;
13708;SDS011;54933;51.908;7.730;2023-07-08T10:22:23;10.03;;;2.73;;
13708;SDS011;54933;51.908;7.730;2023-07-08T10:30:21;13.77;;;2.57;;
13708;SDS011;54933;51.908;7.730;2023-07-08T10:36:26;9.73;;;2.50;;
13708;SDS011;54933;51.908;7.730;2023-07-08T10:38:48;11.93;;;2.63;;
13708;SDS011;54933;51.908;7.730;2023-07-08T10:41:44;6.37;;;2.20;;
13708;SDS011;54933;51.908;7.730;2023-07-08T10:44:34;7.67;;;2.00;;
13708;SDS011;54933;51.908;7.730;2023-07-08T10:49:56;4.97;;;1.87;;
13708;SDS011;54933;51.908;7.730;2023-07-08T10:52:38;7.17;;;1.70;;
13708;SDS011;54933;51.908;7.730;2023-07-08T10:55:32;7.40;;;2.07;;
13708;SDS011;54933;51.908;7.730;2023-07-08T11:01:19;3.60;;;1.90;;
13708;SDS011;54933;51.908;7.730;2023-07-08T11:06:52;3.90;;;1.67;;
13708;SDS011;54933;51.908;7.730;2023-07-08T11:09:26;53.60;;;7.90;;
13708;SDS011;54933;51.908;7.730;2023-07-08T11:12:36;55.43;;;5.93;;
13708;SDS011;54933;51.908;7.730;2023-07-08T11:18:11;24.17;;;4.33;;
13708;SDS011;54933;51.908;7.730;2023-07-08T11:20:44;119.43;;;10.47;;
13708;SDS011;54933;51.908;7.730;2023-07-08T11:23:36;17.90;;;3.23;;
13708;SDS011;54933;51.908;7.730;2023-07-08T11:26:14;19.83;;;4.37;;
13708;SDS011;54933;51.908;7.730;2023-07-08T11:28:45;24.30;;;5.50;;
13708;SDS011;54933;51.908;7.730;2023-07-08T11:31:11;43.90;;;5.67;;
13708;SDS011;54933;51.908;7.730;2023-07-08T11:33:39;47.30;;;6.77;;
13708;SDS011;54933;51.908;7.730;2023-07-08T11:36:06;29.70;;;4.80;;
13708;SDS011;54933;51.908;7.730;2023-07-08T11:38:33;28.87;;;4.37;;
13708;SDS011;54933;51.908;7.730;2023-07-08T11:41:00;22.93;;;4.43;;
13708;SDS011;54933;51.908;7.730;2023-07-08T11:44:14;18.60;;;4.33;;
13708;SDS011;54933;51.908;7.730;2023-07-08T11:46:25;25.00;;;4.93;;
13708;SDS011;54933;51.908;7.730;2023-07-08T11:49:05;15.43;;;2.97;;
13708;SDS011;54933;51.908;7.730;2023-07-08T11:51:37;17.97;;;4.27;;
13708;SDS011;54933;51.908;7.730;2023-07-08T11:54:12;12.07;;;3.67;;
13708;SDS011;54933;51.908;7.730;2023-07-08T11:59:30;15.27;;;3.40;;
13708;SDS011;54933;51.908;7.730;2023-07-08T12:02:11;15.00;;;3.00;;
13708;SDS011;54933;51.908;7.730;2023-07-08T12:04:55;19.87;;;3.37;;
13708;SDS011;54933;51.908;7.730;2023-07-08T12:07:30;10.33;;;2.57;;
13708;SDS011;54933;51.908;7.730;2023-07-08T12:13:09;10.33;;;2.83;;
13708;SDS011;54933;51.908;7.730;2023-07-08T12:15:38;7.33;;;2.70;;
13708;SDS011;54933;51.908;7.730;2023-07-08T12:20:48;4.83;;;2.30;;
13708;SDS011;54933;51.908;7.730;2023-07-08T12:23:20;9.40;;;2.73;;
13708;SDS011;54933;51.908;7.730;2023-07-08T12:25:47;13.07;;;2.60;;
13708;SDS011;54933;51.908;7.730;2023-07-08T12:28:14;7.10;;;2.30;;
13708;SDS011;54933;51.908;7.730;2023-07-08T12:30:40;9.90;;;2.80;;
13708;SDS011;54933;51.908;7.730;2023-07-08T12:33:09;5.93;;;1.80;;
13708;SDS011;54933;51.908;7.730;2023-07-08T12:35:38;7.93;;;2.80;;
13708;SDS011;54933;51.908;7.730;2023-07-08T12:40:43;10.70;;;2.67;;
13708;SDS011;54933;51.908;7.730;2023-07-08T12:43:09;7.50;;;2.50;;
13708;SDS011;54933;51.908;7.730;2023-07-08T12:45:35;6.50;;;2.23;;
13708;SDS011;54933;51.908;7.730;2023-07-08T12:48:01;4.67;;;2.67;;
13708;SDS011;54933;51.908;7.730;2023-07-08T12:50:27;6.37;;;2.60;;
13708;SDS011;54933;51.908;7.730;2023-07-08T12:52:53;6.57;;;2.43;;
13708;SDS011;54933;51.908;7.730;2023-07-08T12:55:18;8.13;;;3.27;;
13708;SDS011;54933;51.908;7.730;2023-07-08T12:57:45;5.50;;;2.67;;
13708;SDS011;54933;51.908;7.730;2023-07-08T13:00:14;5.63;;;2.70;;
13708;SDS011;54933;51.908;7.730;2023-07-08T13:02:55;2.90;;;2.03;;
13708;SDS011;54933;51.908;7.730;2023-07-08T13:05:23;5.13;;;2.37;;
13708;SDS011;54933;51.908;7.730;2023-07-08T13:07:50;4.87;;;2.17;;
13708;SDS011;54933;51.908;7.730;2023-07-08T13:10:18;5.53;;;2.00;;
13708;SDS011;54933;51.908;7.730;2023-07-08T13:12:46;3.67;;;2.33;;
13708;SDS011;54933;51.908;7.730;2023-07-08T13:15:18;5.70;;;2.07;;
13708;SDS011;54933;51.908;7.730;2023-07-08T13:17:48;2.57;;;1.83;;
13708;SDS011;54933;51.908;7.730;2023-07-08T13:20:14;5.17;;;2.23;;
13708;SDS011;54933;51.908;7.730;2023-07-08T13:22:41;3.27;;;2.10;;
13708;SDS011;54933;51.908;7.730;2023-07-08T13:25:12;5.30;;;2.67;;
13708;SDS011;54933;51.908;7.730;2023-07-08T13:27:40;10.67;;;4.23;;
13708;SDS011;54933;51.908;7.730;2023-07-08T13:30:19;9.17;;;3.17;;
13708;SDS011;54933;51.908;7.730;2023-07-08T13:32:51;12.50;;;3.63;;
13708;SDS011;54933;51.908;7.730;2023-07-08T13:37:53;14.73;;;3.07;;
13708;SDS011;54933;51.908;7.730;2023-07-08T13:40:20;7.63;;;3.10;;
13708;SDS011;54933;51.908;7.730;2023-07-08T13:42:52;11.40;;;3.13;;
13708;SDS011;54933;51.908;7.730;2023-07-08T13:45:22;9.63;;;3.07;;
13708;SDS011;54933;51.908;7.730;2023-07-08T13:50:46;11.83;;;2.90;;
13708;SDS011;54933;51.908;7.730;2023-07-08T13:53:27;11.43;;;2.93;;
13708;SDS011;54933;51.908;7.730;2023-07-08T13:56:38;3.63;;;2.60;;
13708;SDS011;54933;51.908;7.730;2023-07-08T13:59:02;2.30;;;1.90;;
13708;SDS011;54933;51.908;7.730;2023-07-08T14:01:30;2.33;;;2.03;;
13708;SDS011;54933;51.908;7.730;2023-07-08T14:03:57;2.33;;;2.00;;
13708;SDS011;54933;51.908;7.730;2023-07-08T14:06:28;7.50;;;2.60;;
13708;SDS011;54933;51.908;7.730;2023-07-08T14:08:56;4.13;;;1.90;;
13708;SDS011;54933;51.908;7.730;2023-07-08T14:11:23;14.63;;;3.30;;
13708;SDS011;54933;51.908;7.730;2023-07-08T14:13:48;5.97;;;2.30;;
13708;SDS011;54933;51.908;7.730;2023-07-08T14:16:24;7.93;;;2.50;;
13708;SDS011;54933;51.908;7.730;2023-07-08T14:18:53;8.50;;;2.67;;
13708;SDS011;54933;51.908;7.730;2023-07-08T14:21:20;10.60;;;2.43;;
13708;SDS011;54933;51.908;7.730;2023-07-08T14:23:45;5.63;;;2.50;;
13708;SDS011;54933;51.908;7.730;2023-07-08T14:26:10;6.40;;;2.80;;
13708;SDS011;54933;51.908;7.730;2023-07-08T14:28:36;5.80;;;2.60;;
13708;SDS011;54933;51.908;7.730;2023-07-08T14:31:02;7.73;;;2.77;;
13708;SDS011;54933;51.908;7.730;2023-07-08T14:33:27;5.30;;;2.63;;
13708;SDS011;54933;51.908;7.730;2023-07-08T14:35:53;5.80;;;2.07;;
13708;SDS011;54933;51.908;7.730;2023-07-08T14:38:18;15.57;;;4.63;;
13708;SDS011;54933;51.908;7.730;2023-07-08T14:40:43;19.57;;;4.33;;
13708;SDS011;54933;51.908;7.730;2023-07-08T14:43:16;19.80;;;4.27;;
13708;SDS011;54933;51.908;7.730;2023-07-08T14:45:50;26.53;;;4.17;;
13708;SDS011;54933;51.908;7.730;2023-07-08T14:48:18;16.57;;;3.90;;
13708;SDS011;54933;51.908;7.730;2023-07-08T14:50:43;16.73;;;3.93;;
13708;SDS011;54933;51.908;7.730;2023-07-08T14:53:09;11.80;;;3.30;;
13708;SDS011;54933;51.908;7.730;2023-07-08T14:55:34;15.03;;;3.57;;
13708;SDS011;54933;51.908;7.730;2023-07-08T14:58:01;10.07;;;2.50;;
13708;SDS011;54933;51.908;7.730;2023-07-08T15:00:28;12.13;;;3.33;;
13708;SDS011;54933;51.908;7.730;2023-07-08T15:02:53;11.33;;;2.77;;
13708;SDS011;54933;51.908;7.730;2023-07-08T15:05:20;5.83;;;2.30;;
13708;SDS011;54933;51.908;7.730;2023-07-08T15:07:52;19.10;;;3.80;;
13708;SDS011;54933;51.908;7.730;2023-07-08T15:10:19;13.90;;;3.27;;
13708;SDS011;54933;51.908;7.730;2023-07-08T15:12:48;11.13;;;3.00;;
13708;SDS011;54933;51.908;7.730;2023-07-08T15:15:18;14.80;;;4.10;;
13708;SDS011;54933;51.908;7.730;2023-07-08T15:17:51;5.20;;;1.90;;
13708;SDS011;54933;51.908;7.730;2023-07-08T15:20:17;9.00;;;2.80;;
13708;SDS011;54933;51.908;7.730;2023-07-08T15:22:43;7.33;;;2.63;;
13708;SDS011;54933;51.908;7.730;2023-07-08T15:25:12;13.87;;;2.50;;
13708;SDS011;54933;51.908;7.730;2023-07-08T15:27:43;5.00;;;3.20;;
13708;SDS011;54933;51.908;7.730;2023-07-08T15:30:23;4.43;;;2.47;;
13708;SDS011;54933;51.908;7.730;2023-07-08T15:32:50;6.93;;;2.80;;
13708;SDS011;54933;51.908;7.730;2023-07-08T15:35:19;4.63;;;2.80;;
13708;SDS011;54933;51.908;7.730;2023-07-08T15:37:46;10.23;;;3.10;;
13708;SDS011;54933;51.908;7.730;2023-07-08T15:40:13;9.17;;;2.83;;
13708;SDS011;54933;51.908;7.730;2023-07-08T15:42:40;7.40;;;3.00;;
13708;SDS011;54933;51.908;7.730;2023-07-08T15:45:14;4.37;;;2.90;;